KCMY/CMY METAR and TAF weather

Enter ICAO airport designator
Station Type Date Time Source
KCMY METAR 2024/06/14 01:55 UTC NOAA

KCMY 140155Z AUTO 00000KT 9SM CLR 18/17 A2986 RMK AO2 SLP111 T01760169 $


Station Type Date Time Source
KCMY Decoded METAR 2024/06/14 01:55 UTC NOAA

Sparta, Sparta / Fort McCoy Airport, WI, United States (KCMY) 43-57-30N 090-44-16W
Jun 13, 2024 - 09:55 PM EDT / 2024.06.14 0155 UTC
Wind: Calm:0
Visibility: 9 mile(s):0
Sky conditions: clear
Temperature: 63.7 F (17.6 C)
Dew Point: 62.4 F (16.9 C)
Relative Humidity: 95%
Pressure (altimeter): 29.86 in. Hg (1011 hPa)
ob: KCMY 140155Z AUTO 00000KT 9SM CLR 18/17 A2986 RMK AO2 SLP111 T01760169
cycle: 2

Station Type Date Time Source
KCMY TAF UTC NOAA

Error!

Example: see airport list